Time;durP1;ratioP1;P1;durP2;ratioP2;P2;SDS_P1;SDS_P2;PMS_P1;PMS_P2;Temp;Humidity;BMP_temperature;BMP_pressure;BME280_temperature;BME280_humidity;BME280_pressure;Samples;Min_cycle;Max_cycle;Signal;HPM_P1;HPM_P2
2022/05/28 00:00:42;;;;;;;4.22;1.27;;;;;;;11.36;52.29;101877.28;5057139;28;20377;-44
2022/05/28 00:03:08;;;;;;;6.13;1.10;;;;;;;11.31;51.54;101869.72;5074358;28;20041;-42
2022/05/28 00:05:34;;;;;;;3.35;1.02;;;;;;;11.26;51.83;101861.28;5074418;28;20040;-47
2022/05/28 00:07:59;;;;;;;7.38;1.20;;;;;;;11.11;52.65;101844.13;5056375;28;20032;-42
2022/05/28 00:10:26;;;;;;;6.88;1.60;;;;;;;11.20;53.00;101870.84;5075002;28;20141;-42
2022/05/28 00:12:51;;;;;;;5.20;1.00;;;;;;;11.19;52.11;101871.00;5074779;28;20111;-41
2022/05/28 00:15:17;;;;;;;5.28;1.17;;;;;;;11.10;53.86;101858.53;5075476;28;20118;-43
2022/05/28 00:17:43;;;;;;;8.65;1.77;;;;;;;11.11;53.76;101862.94;5074338;28;20104;-41
2022/05/28 00:20:10;;;;;;;4.93;1.08;;;;;;;10.96;53.50;101849.28;5073954;28;20077;-42
2022/05/28 00:22:38;;;;;;;8.38;1.10;;;;;;;11.04;53.86;101860.88;5055860;28;20024;-43
2022/05/28 00:25:05;;;;;;;4.93;1.40;;;;;;;10.90;54.63;101840.00;5074379;28;20388;-42
2022/05/28 00:27:30;;;;;;;10.48;2.08;;;;;;;10.92;55.38;101848.75;5073974;28;20089;-42
2022/05/28 00:29:56;;;;;;;8.05;1.40;;;;;;;10.97;55.22;101853.63;5056011;28;20033;-42
2022/05/28 00:32:22;;;;;;;7.40;1.65;;;;;;;10.80;55.99;101837.41;5074324;28;20036;-41
2022/05/28 00:34:48;;;;;;;7.78;1.60;;;;;;;10.85;55.15;101855.78;5074887;28;20154;-43
2022/05/28 00:37:13;;;;;;;9.73;1.27;;;;;;;10.79;56.08;101851.00;5056714;28;20119;-43
2022/05/28 00:39:39;;;;;;;5.82;1.02;;;;;;;10.79;55.89;101859.94;5057432;28;20365;-43
2022/05/28 00:42:06;;;;;;;6.25;1.45;;;;;;;10.79;55.71;101859.94;5074872;28;20111;-42
2022/05/28 00:44:31;;;;;;;5.70;1.15;;;;;;;10.76;55.06;101852.19;5074652;28;20021;-42
2022/05/28 00:46:59;;;;;;;11.68;1.60;;;;;;;10.72;55.99;101839.25;5073509;28;20487;-43
2022/05/28 00:49:29;;;;;;;8.45;1.42;;;;;;;10.70;56.75;101843.91;5074622;28;20492;-44
2022/05/28 00:51:59;;;;;;;5.80;1.20;;;;;;;10.59;55.95;101834.31;5074698;28;20435;-42
2022/05/28 00:54:28;;;;;;;7.25;1.40;;;;;;;10.60;56.16;101847.56;5040509;28;20103;-43
2022/05/28 00:56:54;;;;;;;5.63;1.17;;;;;;;10.51;55.38;101843.19;5074938;28;20025;-42
2022/05/28 00:59:20;;;;;;;4.60;0.95;;;;;;;10.52;56.28;101847.53;5056504;28;20059;-43
2022/05/28 01:01:46;;;;;;;6.13;1.83;;;;;;;10.52;56.78;101844.00;5056282;28;20025;-42
2022/05/28 01:04:21;;;;;;;6.18;1.40;;;;;;;10.41;56.69;101823.63;5056735;28;20116;-43
2022/05/28 01:07:05;;;;;;;6.65;1.48;;;;;;;10.48;58.02;101840.81;5074193;28;20028;-44
2022/05/28 01:09:58;;;;;;;9.98;1.58;;;;;;;10.39;58.90;101822.94;5075001;28;20020;-43
2022/05/28 01:12:53;;;;;;;6.47;1.63;;;;;;;10.39;58.28;101839.91;5056390;28;20442;-43
2022/05/28 01:15:23;;;;;;;5.80;1.27;;;;;;;10.35;57.66;101843.91;5043681;28;20469;-43
2022/05/28 01:17:56;;;;;;;6.30;1.33;;;;;;;10.30;57.49;101832.75;5074589;28;20025;-42
2022/05/28 01:20:27;;;;;;;7.20;1.27;;;;;;;10.30;57.48;101831.94;5074636;28;20032;-42
2022/05/28 01:23:09;;;;;;;5.07;1.40;;;;;;;10.30;58.35;101829.25;5074299;28;20131;-42
2022/05/28 01:26:03;;;;;;;9.32;1.38;;;;;;;10.30;58.09;101835.44;5073901;28;20077;-43
2022/05/28 01:28:37;;;;;;;6.05;1.15;;;;;;;10.21;58.58;101829.16;5060638;28;20037;-42
2022/05/28 01:31:05;;;;;;;7.22;1.35;;;;;;;10.16;57.78;101825.28;5074209;28;20041;-45
2022/05/28 01:33:34;;;;;;;6.50;1.10;;;;;;;10.17;58.61;101841.22;5074435;28;20571;-42
2022/05/28 01:38:37;;;;;;;6.18;1.15;;;;;;;10.03;58.46;101833.75;5073728;28;20032;-43
2022/05/28 01:41:06;;;;;;;9.30;1.55;;;;;;;10.03;58.47;101834.59;5056211;28;20467;-43
2022/05/28 01:43:37;;;;;;;5.60;1.30;;;;;;;10.04;58.46;101835.44;5056128;28;20033;-42
2022/05/28 01:46:04;;;;;;;3.97;1.17;;;;;;;9.82;58.00;101801.88;5079240;28;20063;-43
2022/05/28 01:48:31;;;;;;;9.23;1.10;;;;;;;9.88;58.35;101815.53;5080349;28;20062;-41
2022/05/28 01:51:00;;;;;;;11.35;1.30;;;;;;;9.88;58.45;101820.91;5080650;28;20085;-41
2022/05/28 01:56:13;;;;;;;4.68;1.30;;;;;;;9.75;58.79;101808.88;5059879;28;20066;-43
2022/05/28 01:58:39;;;;;;;5.78;1.40;;;;;;;9.78;58.60;101820.13;5077059;28;20166;-42
2022/05/28 02:01:07;;;;;;;8.25;1.08;;;;;;;9.78;58.22;101822.81;5077901;28;20028;-43
2022/05/28 02:03:36;;;;;;;4.60;1.40;;;;;;;9.79;59.17;101819.16;5077921;28;20051;-41
2022/05/28 02:06:02;;;;;;;4.22;1.27;;;;;;;9.79;58.93;101827.19;5078182;28;20043;-42
2022/05/28 02:08:32;;;;;;;9.88;1.20;;;;;;;9.81;57.76;101832.41;5059881;28;20028;-42
2022/05/28 02:11:17;;;;;;;6.60;1.58;;;;;;;9.72;58.82;101830.66;5062190;28;20040;-43
2022/05/28 02:14:05;;;;;;;7.03;1.17;;;;;;;9.72;59.28;101830.66;5061034;28;20060;-43
2022/05/28 02:16:50;;;;;;;5.50;1.52;;;;;;;9.69;59.27;101829.09;5080572;28;20027;-42
2022/05/28 02:19:35;;;;;;;6.93;1.30;;;;;;;9.72;59.07;101830.66;5079071;28;20032;-41
2022/05/28 02:22:09;;;;;;;3.20;1.00;;;;;;;9.71;58.79;101835.16;5061844;28;20476;-41
2022/05/28 02:24:41;;;;;;;7.15;1.40;;;;;;;9.71;59.13;101834.31;5077317;28;20535;-41
2022/05/28 02:27:13;;;;;;;3.85;1.13;;;;;;;9.66;59.30;101822.22;5077017;28;20033;-44
2022/05/28 02:29:40;;;;;;;3.55;0.98;;;;;;;9.65;59.01;101827.72;5059042;28;20538;-42
2022/05/28 02:32:24;;;;;;;5.07;1.10;;;;;;;9.65;59.28;101819.69;5077240;28;20472;-41
2022/05/28 02:34:50;;;;;;;5.03;1.63;;;;;;;9.58;59.36;101819.44;5059776;28;20160;-47
2022/05/28 02:37:20;;;;;;;5.78;1.35;;;;;;;9.60;59.38;101824.66;5077215;28;20032;-41
2022/05/28 02:39:46;;;;;;;7.57;1.20;;;;;;;9.53;59.61;101821.78;5077531;28;20058;-42
2022/05/28 02:42:12;;;;;;;5.80;1.42;;;;;;;9.53;59.25;101820.91;5077254;28;20380;-41
2022/05/28 02:44:37;;;;;;;6.63;1.20;;;;;;;9.50;59.59;101816.69;5059436;28;20032;-41
2022/05/28 02:47:04;;;;;;;9.80;1.25;;;;;;;9.43;59.07;101805.72;5058911;28;20039;-42
2022/05/28 02:49:30;;;;;;;4.32;1.08;;;;;;;9.48;59.43;101818.69;5076752;28;20427;-41
2022/05/28 02:51:56;;;;;;;7.68;1.00;;;;;;;9.52;58.77;101827.28;5076394;28;20063;-41
2022/05/28 02:54:22;;;;;;;7.38;1.63;;;;;;;9.38;60.01;101808.06;5076733;28;20021;-41
2022/05/28 02:56:48;;;;;;;9.23;1.50;;;;;;;9.44;60.19;101834.25;5076427;28;20465;-43
2022/05/28 02:59:15;;;;;;;8.10;1.48;;;;;;;9.39;60.04;101822.28;5076570;28;20516;-41
2022/05/28 03:01:41;;;;;;;5.25;1.17;;;;;;;9.37;59.53;101833.16;5076526;28;20107;-42
2022/05/28 03:04:07;;;;;;;5.80;1.90;;;;;;;9.37;60.57;101829.66;5076465;28;20139;-42
2022/05/28 03:06:35;;;;;;;9.68;1.55;;;;;;;9.28;60.50;101823.34;5058825;28;20078;-41
2022/05/28 03:09:02;;;;;;;9.30;1.60;;;;;;;9.29;59.90;101823.19;5075147;28;20037;-42
2022/05/28 03:11:28;;;;;;;9.45;1.35;;;;;;;9.08;60.61;101806.53;5058254;28;20085;-41
2022/05/28 03:13:54;;;;;;;6.60;1.50;;;;;;;9.20;61.53;101826.78;5076177;28;20033;-41
2022/05/28 03:16:20;;;;;;;6.60;1.30;;;;;;;9.20;60.85;101832.16;5076077;28;20106;-42
2022/05/28 03:18:46;;;;;;;4.72;1.30;;;;;;;9.13;61.40;101823.03;5076350;28;20117;-41
2022/05/28 03:21:12;;;;;;;3.63;1.30;;;;;;;9.17;60.88;101820.88;5076344;28;20070;-40
2022/05/28 03:23:38;;;;;;;8.38;1.20;;;;;;;9.14;61.35;101822.03;5075670;28;20186;-41
2022/05/28 03:26:22;;;;;;;5.68;1.20;;;;;;;9.13;61.51;101825.69;5058022;28;20111;-43
2022/05/28 03:28:49;;;;;;;7.13;1.55;;;;;;;9.10;61.94;101832.22;5075887;28;20055;-41
2022/05/28 03:31:16;;;;;;;6.45;1.27;;;;;;;9.01;61.63;101814.34;5075829;28;20058;-42
2022/05/28 03:33:42;;;;;;;5.00;1.35;;;;;;;8.99;61.75;101820.84;5075954;28;20024;-44
2022/05/28 03:36:08;;;;;;;5.72;1.10;;;;;;;8.97;61.92;101826.38;5058216;28;20102;-43
2022/05/28 03:38:34;;;;;;;8.70;1.27;;;;;;;8.91;61.13;101835.84;5076147;28;20029;-42
2022/05/28 03:41:00;;;;;;;7.57;1.40;;;;;;;8.88;61.33;101824.59;5057837;28;20115;-41
2022/05/28 03:43:27;;;;;;;11.68;2.05;;;;;;;8.89;61.96;101835.13;5075385;28;20173;-43
2022/05/28 03:45:53;;;;;;;10.15;1.95;;;;;;;8.85;62.53;101833.75;5057262;28;20032;-44
2022/05/28 03:48:20;;;;;;;8.80;1.50;;;;;;;8.87;62.00;101828.25;5075620;28;20037;-44
2022/05/28 03:50:45;;;;;;;8.57;1.83;;;;;;;8.70;62.36;101800.41;5077545;28;20036;-42
2022/05/28 03:53:12;;;;;;;11.27;1.88;;;;;;;8.85;62.33;101830.22;5060969;28;20028;-43
2022/05/28 03:55:39;;;;;;;9.60;1.42;;;;;;;8.85;62.35;101832.91;5079021;28;20024;-44
2022/05/28 03:58:06;;;;;;;9.40;1.20;;;;;;;8.65;62.00;101800.00;5081328;28;20028;-42
2022/05/28 04:00:33;;;;;;;10.95;1.83;;;;;;;8.81;62.13;101831.53;5064166;28;20028;-43
2022/05/28 04:02:59;;;;;;;6.72;1.00;;;;;;;8.81;61.89;101831.53;5078918;28;20083;-42
2022/05/28 04:05:25;;;;;;;4.38;1.33;;;;;;;8.73;62.69;101837.63;5076852;28;20407;-42
2022/05/28 04:07:51;;;;;;;7.50;1.40;;;;;;;8.63;62.83;101821.56;5058786;28;20033;-50
2022/05/28 04:10:17;;;;;;;5.68;1.60;;;;;;;8.63;62.38;101834.97;5077033;28;20044;-42
2022/05/28 04:12:43;;;;;;;6.65;1.10;;;;;;;8.68;63.09;101842.56;5057521;28;20042;-42
2022/05/28 04:15:10;;;;;;;2.60;0.98;;;;;;;8.65;63.16;101837.50;5075230;28;20028;-43
2022/05/28 04:17:37;;;;;;;7.35;1.30;;;;;;;8.65;63.27;101834.81;5074937;28;20074;-45
2022/05/28 04:20:05;;;;;;;9.43;1.52;;;;;;;8.74;63.83;101841.97;5075572;28;20028;-42
2022/05/28 04:22:30;;;;;;;6.20;1.25;;;;;;;8.74;63.28;101841.16;5057672;28;20028;-41
2022/05/28 04:24:56;;;;;;;7.75;1.35;;;;;;;8.69;63.51;101837.09;5075177;28;20039;-42
2022/05/28 04:27:22;;;;;;;9.98;1.27;;;;;;;8.77;62.90;101840.88;5074863;28;20392;-42
2022/05/28 04:29:47;;;;;;;10.07;1.75;;;;;;;8.76;63.36;101844.50;5075098;28;20029;-42
2022/05/28 04:32:14;;;;;;;10.35;1.60;;;;;;;8.76;64.15;101845.34;5074702;28;20373;-42
2022/05/28 04:34:39;;;;;;;5.20;1.33;;;;;;;8.80;63.32;101851.25;5074870;28;20033;-42
2022/05/28 04:37:06;;;;;;;5.68;1.30;;;;;;;8.81;63.95;101850.28;5074960;28;20032;-43
2022/05/28 04:39:31;;;;;;;8.63;1.25;;;;;;;8.83;63.42;101842.94;5074627;28;20025;-42
2022/05/28 04:41:57;;;;;;;12.63;1.95;;;;;;;8.86;63.25;101848.00;5075052;28;20154;-42
2022/05/28 04:44:23;;;;;;;12.88;1.42;;;;;;;8.88;63.84;101843.34;5075304;28;20029;-42
2022/05/28 04:46:48;;;;;;;4.90;1.50;;;;;;;8.89;63.07;101842.34;5074586;28;20142;-43
2022/05/28 04:49:14;;;;;;;5.32;1.55;;;;;;;8.82;62.74;101831.38;5041683;28;20083;-42
2022/05/28 04:51:41;;;;;;;8.23;1.63;;;;;;;8.82;63.72;101839.44;5058000;28;20427;-42
2022/05/28 04:54:07;;;;;;;3.83;1.55;;;;;;;8.72;62.93;101823.38;5075832;28;20492;-42
2022/05/28 04:56:32;;;;;;;6.53;1.27;;;;;;;8.82;63.94;101838.56;5076440;28;20036;-42
2022/05/28 04:58:58;;;;;;;5.57;1.20;;;;;;;8.78;64.01;101832.66;5057526;28;20040;-42
2022/05/28 05:01:25;;;;;;;7.13;1.92;;;;;;;8.86;64.04;101856.88;5058684;28;20060;-42
2022/05/28 05:03:51;;;;;;;5.90;1.33;;;;;;;8.85;63.49;101846.31;5056622;28;20028;-42
2022/05/28 05:06:17;;;;;;;8.38;1.60;;;;;;;8.87;64.23;101865.75;5075049;28;20027;-43
2022/05/28 05:08:44;;;;;;;10.75;1.42;;;;;;;8.87;64.20;101863.06;5074744;28;20024;-41
2022/05/28 05:11:11;;;;;;;9.35;1.40;;;;;;;8.88;64.50;101862.94;5075009;28;20020;-43
2022/05/28 05:13:36;;;;;;;7.50;1.58;;;;;;;8.87;63.71;101857.72;5056681;28;20388;-41
2022/05/28 05:16:12;;;;;;;10.15;1.70;;;;;;;8.87;65.03;101861.22;5057808;28;20040;-42
2022/05/28 05:18:37;;;;;;;13.93;2.67;;;;;;;8.88;64.56;101864.78;5076676;28;20037;-42
2022/05/28 05:21:03;;;;;;;9.57;1.83;;;;;;;8.85;64.50;101860.53;5058141;28;20024;-42
2022/05/28 05:23:29;;;;;;;8.60;1.45;;;;;;;8.88;64.81;101860.25;5074980;28;20064;-42
2022/05/28 05:25:55;;;;;;;7.05;1.23;;;;;;;8.93;64.41;101867.84;5057294;28;20036;-42
2022/05/28 05:28:21;;;;;;;8.48;1.65;;;;;;;8.93;65.71;101873.19;5075283;28;20040;-42
2022/05/28 05:30:47;;;;;;;6.50;1.40;;;;;;;8.96;64.56;101864.88;5056721;28;20437;-41
2022/05/28 05:33:12;;;;;;;5.97;1.45;;;;;;;8.82;64.98;101839.44;5076280;28;20051;-42
2022/05/28 05:35:38;;;;;;;12.30;1.42;;;;;;;9.00;65.04;101849.34;5060903;28;20032;-42
2022/05/28 05:38:05;;;;;;;6.57;1.73;;;;;;;9.04;64.89;101862.28;5078907;28;20029;-41
2022/05/28 05:40:34;;;;;;;6.05;1.58;;;;;;;9.07;64.69;101861.16;5078132;28;20060;-41
2022/05/28 05:43:00;;;;;;;7.70;1.27;;;;;;;9.03;65.18;101857.09;5077997;28;20480;-41
2022/05/28 05:45:25;;;;;;;10.15;1.42;;;;;;;9.07;64.64;101856.63;5078981;28;20040;-41
2022/05/28 05:47:51;;;;;;;11.40;1.75;;;;;;;9.09;65.21;101870.72;5060633;28;20029;-41
2022/05/28 05:50:17;;;;;;;12.25;1.83;;;;;;;9.10;64.93;101861.69;5078801;28;20507;-41
2022/05/28 05:52:43;;;;;;;9.15;1.60;;;;;;;9.15;64.74;101868.44;5078378;28;20068;-43
2022/05/28 05:55:09;;;;;;;5.97;1.30;;;;;;;9.17;64.57;101863.78;5078447;28;20060;-41
2022/05/28 05:57:34;;;;;;;9.13;1.45;;;;;;;9.22;65.22;101867.69;5078279;28;20029;-41
2022/05/28 06:00:00;;;;;;;8.10;1.25;;;;;;;9.17;64.80;101850.38;5077991;28;20324;-41
2022/05/28 06:02:26;;;;;;;18.80;1.75;;;;;;;9.27;64.54;101861.88;5077740;28;20064;-41
2022/05/28 06:04:53;;;;;;;11.48;1.60;;;;;;;9.30;64.22;101862.44;5077691;28;20035;-42
2022/05/28 06:07:19;;;;;;;8.68;1.55;;;;;;;9.33;64.45;101863.97;5043005;28;20070;-41
2022/05/28 06:09:45;;;;;;;11.75;1.45;;;;;;;9.28;64.54;101853.66;5059132;28;20033;-41
2022/05/28 06:12:11;;;;;;;8.23;1.65;;;;;;;9.39;64.49;101866.03;5043534;28;20037;-40
2022/05/28 06:14:36;;;;;;;16.40;4.35;;;;;;;9.36;63.97;101858.31;5062791;28;20546;-47
2022/05/28 06:17:02;;;;;;;8.52;1.77;;;;;;;9.38;64.32;101859.00;5060664;28;20028;-41
2022/05/28 06:19:28;;;;;;;9.73;1.42;;;;;;;9.43;64.36;101863.88;5078567;28;20037;-41
2022/05/28 06:21:57;;;;;;;7.30;1.08;;;;;;;9.52;63.74;101870.19;5078630;28;20040;-44
2022/05/28 06:24:23;;;;;;;4.82;1.05;;;;;;;9.54;63.81;101874.38;5078155;28;20040;-41
2022/05/28 06:26:49;;;;;;;5.28;1.40;;;;;;;9.57;63.46;101875.94;5077693;28;20033;-41
2022/05/28 06:29:15;;;;;;;5.53;1.17;;;;;;;9.62;63.22;101879.00;5077225;28;20028;-41
2022/05/28 06:31:40;;;;;;;9.52;1.42;;;;;;;9.62;63.74;101873.63;5077781;28;20032;-41
2022/05/28 06:34:06;;;;;;;4.32;1.00;;;;;;;9.58;62.85;101866.88;5077252;28;20024;-43
2022/05/28 06:36:32;;;;;;;4.68;1.00;;;;;;;9.65;63.43;101867.97;5059633;28;20099;-41
2022/05/28 06:38:58;;;;;;;7.43;1.20;;;;;;;9.70;63.54;101871.03;5058996;28;20066;-42
2022/05/28 06:41:23;;;;;;;5.95;1.35;;;;;;;9.75;62.78;101859.84;5058957;28;20040;-41
2022/05/28 06:43:51;;;;;;;5.82;1.13;;;;;;;9.72;63.26;101863.69;5076883;28;20062;-41
2022/05/28 06:46:17;;;;;;;8.95;1.02;;;;;;;9.63;63.18;101848.50;5076866;28;20415;-41
2022/05/28 06:48:42;;;;;;;4.35;1.05;;;;;;;9.73;63.49;101846.56;5042228;28;20028;-41
2022/05/28 06:51:08;;;;;;;7.95;1.27;;;;;;;9.89;62.62;101867.34;5058732;28;20024;-41
2022/05/28 06:53:40;;;;;;;3.72;1.30;;;;;;;9.93;63.21;101860.66;5076802;28;20025;-43
2022/05/28 06:56:06;;;;;;;5.00;1.27;;;;;;;9.93;62.61;101859.84;5077035;28;20116;-41
2022/05/28 06:58:33;;;;;;;3.42;1.05;;;;;;;9.98;62.77;101861.06;5076412;28;20036;-41
2022/05/28 07:00:59;;;;;;;6.22;1.23;;;;;;;10.02;62.42;101858.91;5076924;28;20028;-42
2022/05/28 07:03:27;;;;;;;4.90;1.17;;;;;;;10.05;62.57;101859.44;5076482;28;20131;-41
2022/05/28 07:05:54;;;;;;;4.57;0.98;;;;;;;9.95;62.31;101831.84;5077551;28;20024;-41
2022/05/28 07:08:20;;;;;;;5.53;1.35;;;;;;;10.14;62.25;101854.13;5076840;28;20024;-41
2022/05/28 07:10:49;;;;;;;5.53;1.15;;;;;;;10.21;61.67;101852.50;5077077;28;20054;-42
2022/05/28 07:13:15;;;;;;;2.10;0.98;;;;;;;10.19;61.70;101844.59;5077694;28;20033;-45
2022/05/28 07:15:41;;;;;;;8.90;1.40;;;;;;;10.21;61.74;101836.38;5076020;28;20119;-41
2022/05/28 07:18:07;;;;;;;6.82;1.20;;;;;;;10.27;61.83;101835.78;5059022;28;20028;-41
2022/05/28 07:20:34;;;;;;;5.10;1.00;;;;;;;10.50;61.86;101854.06;5077038;28;20036;-41
2022/05/28 07:23:14;;;;;;;6.63;1.35;;;;;;;10.55;61.51;101857.09;5063429;28;20040;-42
2022/05/28 07:25:41;;;;;;;11.02;1.80;;;;;;;10.58;61.62;101860.31;5096602;28;20506;-42
2022/05/28 07:30:57;;;;;;;6.78;1.33;;;;;;;10.71;61.10;101862.56;5082423;28;20032;-42
2022/05/28 07:33:25;;;;;;;6.40;1.02;;;;;;;10.75;61.34;101855.03;5096161;28;20050;-41
2022/05/28 07:35:53;;;;;;;9.73;1.25;;;;;;;10.82;60.80;101869.50;5078339;28;20035;-43
2022/05/28 07:38:20;;;;;;;11.63;0.88;;;;;;;10.88;60.71;101870.72;5096272;28;20101;-42
2022/05/28 07:40:46;;;;;;;3.83;1.42;;;;;;;10.89;60.54;101878.63;5096447;28;20480;-41
2022/05/28 07:43:12;;;;;;;5.10;1.23;;;;;;;10.94;60.73;101868.25;5096457;28;20032;-41
2022/05/28 07:45:41;;;;;;;4.53;0.98;;;;;;;10.98;59.91;101866.91;5095506;28;20110;-43
2022/05/28 07:48:08;;;;;;;7.57;1.20;;;;;;;11.07;59.95;101864.25;5095839;28;20092;-42
2022/05/28 07:50:33;;;;;;;2.78;0.98;;;;;;;11.14;60.23;101873.34;5095888;28;20061;-42
2022/05/28 07:53:00;;;;;;;4.47;1.23;;;;;;;11.17;60.81;101871.16;5095951;28;20516;-41
2022/05/28 07:55:26;;;;;;;5.43;1.00;;;;;;;11.09;60.52;101864.91;5095328;28;20472;-43
2022/05/28 07:57:52;;;;;;;8.18;1.55;;;;;;;11.22;60.24;101871.53;5096066;28;20028;-43
2022/05/28 08:00:18;;;;;;;10.52;1.30;;;;;;;11.32;59.85;101863.31;5077539;28;20035;-41
2022/05/28 08:02:44;;;;;;;5.20;1.35;;;;;;;11.30;60.24;101870.72;5095379;28;20109;-42
2022/05/28 08:05:10;;;;;;;8.50;1.48;;;;;;;11.66;59.48;101877.69;5078007;28;20051;-42
2022/05/28 08:07:36;;;;;;;5.93;1.20;;;;;;;11.91;58.74;101871.34;5095030;28;20060;-43
2022/05/28 08:10:02;;;;;;;6.35;1.42;;;;;;;12.10;58.21;101872.03;5077713;28;20087;-42
2022/05/28 08:12:28;;;;;;;6.60;1.90;;;;;;;11.94;57.94;101808.25;5077552;28;20051;-42
2022/05/28 08:14:54;;;;;;;3.10;1.08;;;;;;;12.52;58.21;101861.03;5095041;28;20036;-43
2022/05/28 08:17:20;;;;;;;6.45;1.17;;;;;;;13.32;55.61;101868.16;5095060;28;20032;-44
2022/05/28 08:19:45;;;;;;;7.97;1.10;;;;;;;14.48;52.31;101868.91;5095510;28;20024;-43
2022/05/28 08:24:57;;;;;;;4.00;1.10;;;;;;;16.15;47.89;101849.22;5080054;28;20048;-41
2022/05/28 08:27:23;;;;;;;3.60;0.90;;;;;;;16.37;48.44;101858.13;5077010;28;20102;-43
2022/05/28 08:29:49;;;;;;;6.88;1.00;;;;;;;17.22;47.31;101855.28;5077247;28;20436;-43
2022/05/28 08:32:18;;;;;;;7.40;1.40;;;;;;;16.00;48.30;101830.34;5095529;28;20024;-45
2022/05/28 08:34:45;;;;;;;5.75;1.20;;;;;;;16.62;47.17;101846.81;5099297;28;20066;-43
2022/05/28 08:37:11;;;;;;;3.75;1.00;;;;;;;16.01;48.53;101858.25;5047256;28;20425;-43
2022/05/28 08:39:38;;;;;;;6.18;1.10;;;;;;;15.46;49.67;101849.81;5096801;28;20024;-43
2022/05/28 08:42:05;;;;;;;5.28;1.27;;;;;;;15.49;49.84;101850.25;5096819;28;20119;-42
2022/05/28 08:44:36;;;;;;;6.88;1.67;;;;;;;17.15;47.02;101857.13;5078015;28;20426;-46
2022/05/28 08:47:15;;;;;;;2.67;0.70;;;;;;;18.50;42.99;101835.34;5095084;28;20035;-48
2022/05/28 08:49:43;;;;;;;3.33;0.90;;;;;;;19.25;43.52;101818.50;5077005;28;20043;-43
2022/05/28 08:52:19;;;;;;;6.38;1.33;;;;;;;18.70;43.32;101848.84;5095028;28;20028;-43
2022/05/28 08:54:59;;;;;;;3.08;1.10;;;;;;;17.61;44.69;101859.97;5095493;28;20024;-45
2022/05/28 08:57:38;;;;;;;1.98;0.90;;;;;;;16.94;45.71;101858.09;5095464;28;20024;-42
2022/05/28 09:00:12;;;;;;;4.85;1.20;;;;;;;16.39;47.03;101861.50;5094958;28;20031;-41
2022/05/28 09:02:42;;;;;;;4.30;1.13;;;;;;;15.87;48.35;101852.72;5095120;28;20085;-42
2022/05/28 09:05:24;;;;;;;8.32;1.20;;;;;;;15.73;48.86;101859.06;5095300;28;20028;-42
2022/05/28 09:07:54;;;;;;;6.18;1.00;;;;;;;18.34;44.47;101853.75;5096153;28;20057;-42
2022/05/28 09:10:20;;;;;;;4.65;0.85;;;;;;;19.72;42.30;101849.91;5081475;28;20031;-41
2022/05/28 09:12:53;;;;;;;8.75;1.00;;;;;;;20.76;39.27;101845.81;5098745;28;20028;-41
2022/05/28 09:15:18;;;;;;;5.50;1.27;;;;;;;21.94;38.48;101836.19;5082177;28;20032;-42
2022/05/28 09:17:50;;;;;;;5.32;1.38;;;;;;;23.05;34.75;101827.19;5103177;28;20380;-42
2022/05/28 09:20:21;;;;;;;2.38;0.90;;;;;;;22.44;36.24;101826.69;5082025;28;20056;-42
2022/05/28 09:22:48;;;;;;;4.82;1.20;;;;;;;21.29;36.17;101834.22;5080708;28;20071;-42
2022/05/28 09:25:20;;;;;;;2.95;0.82;;;;;;;21.43;37.58;101843.03;5098776;28;20024;-42
2022/05/28 09:28:04;;;;;;;4.72;1.10;;;;;;;23.36;32.88;101833.22;5080571;28;20076;-43
2022/05/28 09:31:10;;;;;;;4.68;0.70;;;;;;;24.32;31.49;101829.63;5098443;28;20039;-41
2022/05/28 09:34:01;;;;;;;1.95;0.65;;;;;;;23.93;31.51;101827.66;5072268;28;20388;-43
2022/05/28 09:36:40;;;;;;;5.45;1.00;;;;;;;23.70;33.84;101825.91;5082889;28;20361;-43
2022/05/28 09:39:39;;;;;;;6.00;1.08;;;;;;;22.61;34.96;101822.13;5098424;28;20043;-42
2022/05/28 09:42:32;;;;;;;6.10;1.23;;;;;;;22.52;34.54;101818.09;5080015;28;20446;-44
2022/05/28 09:45:25;;;;;;;3.90;0.93;;;;;;;22.35;34.71;101828.13;5052386;28;20028;-43
2022/05/28 09:47:53;;;;;;;3.40;1.10;;;;;;;22.70;34.92;101822.59;5084411;28;20029;-42
2022/05/28 09:50:26;;;;;;;4.10;1.00;;;;;;;22.65;33.36;101835.38;5079891;28;20059;-43
2022/05/28 09:56:09;;;;;;;3.45;1.08;;;;;;;23.92;32.53;101820.53;5083300;28;20118;-42
2022/05/28 09:58:38;;;;;;;3.83;1.00;;;;;;;22.95;33.87;101814.06;5063172;28;20032;-43
2022/05/28 10:01:11;;;;;;;4.43;1.20;;;;;;;24.02;32.70;101808.88;5098085;28;20094;-43
2022/05/28 10:06:28;;;;;;;3.45;0.98;;;;;;;26.29;29.81;101799.22;5083343;28;20085;-42
2022/05/28 10:08:54;;;;;;;2.78;0.98;;;;;;;25.56;31.39;101793.47;5098232;28;20029;-42
2022/05/28 10:11:22;;;;;;;4.03;1.20;;;;;;;25.45;29.57;101804.38;5099858;28;20113;-50
2022/05/28 10:13:53;;;;;;;3.70;0.80;;;;;;;23.61;32.46;101801.88;5099072;28;20031;-57
2022/05/28 10:16:26;;;;;;;4.40;1.00;;;;;;;22.87;32.82;101799.94;5099800;28;20043;-60
2022/05/28 10:18:57;;;;;;;3.45;0.98;;;;;;;22.68;32.99;101791.91;5099077;28;20066;-43
2022/05/28 10:21:32;;;;;;;2.15;0.70;;;;;;;21.61;35.01;101798.44;5097776;28;20116;-43
2022/05/28 10:24:03;;;;;;;1.70;0.77;;;;;;;21.03;35.45;101799.91;5084034;28;20079;-42
2022/05/28 10:26:36;;;;;;;2.15;0.73;;;;;;;20.59;36.86;101783.59;5077801;28;20078;-42
2022/05/28 10:29:07;;;;;;;3.70;0.80;;;;;;;20.18;37.44;101801.47;5077062;28;20028;-44
2022/05/28 10:31:38;;;;;;;3.08;0.82;;;;;;;19.71;37.92;101806.47;5077367;28;20086;-42
2022/05/28 10:34:05;;;;;;;2.97;0.88;;;;;;;19.64;39.03;101802.97;5077571;28;20059;-43
2022/05/28 10:36:34;;;;;;;7.80;2.03;;;;;;;19.54;38.82;101793.38;5077227;28;20027;-44
2022/05/28 10:39:08;;;;;;;2.67;1.10;;;;;;;19.64;38.50;101809.25;5077495;28;20103;-43
2022/05/28 10:41:35;;;;;;;7.35;1.00;;;;;;;19.65;38.98;101783.66;5077114;28;20056;-44
2022/05/28 10:44:00;;;;;;;5.28;1.08;;;;;;;20.17;38.08;101797.09;5077122;28;20107;-47
2022/05/28 10:47:07;;;;;;;3.15;1.02;;;;;;;22.50;32.74;101795.63;5059119;28;20136;-43
2022/05/28 10:49:47;;;;;;;3.38;0.80;;;;;;;21.41;34.69;101790.50;5051685;28;20033;-42
2022/05/28 10:52:33;;;;;;;1.48;0.63;;;;;;;20.85;36.22;101790.66;5059473;28;20040;-44
2022/05/28 10:55:07;;;;;;;2.42;0.77;;;;;;;20.80;35.29;101789.66;5077298;28;20080;-42
2022/05/28 10:58:07;;;;;;;3.97;1.05;;;;;;;20.21;36.64;101764.72;5059959;28;20074;-42
2022/05/28 11:00:59;;;;;;;1.50;0.80;;;;;;;20.06;37.04;101782.28;5062676;28;20111;-51
2022/05/28 11:03:52;;;;;;;2.72;0.73;;;;;;;21.09;37.94;101788.03;5063298;28;20043;-44
2022/05/28 11:06:45;;;;;;;1.58;0.60;;;;;;;23.48;33.68;101773.69;5076567;28;20071;-42
2022/05/28 11:09:37;;;;;;;3.15;0.82;;;;;;;24.25;31.30;101774.88;5063050;28;20033;-44
2022/05/28 11:12:24;;;;;;;1.23;0.60;;;;;;;23.55;31.96;101774.38;5061610;28;20040;-43
2022/05/28 11:15:20;;;;;;;1.10;0.70;;;;;;;23.10;31.19;101769.72;5076316;28;20064;-42
2022/05/28 11:18:01;;;;;;;1.60;0.55;;;;;;;22.44;32.33;101761.00;5061994;28;20028;-42
2022/05/28 11:20:38;;;;;;;1.40;0.68;;;;;;;21.67;33.89;101772.88;5058395;28;20064;-43
2022/05/28 11:23:31;;;;;;;1.23;0.50;;;;;;;21.13;33.91;101761.09;5064125;28;20052;-42
2022/05/28 11:26:13;;;;;;;1.77;0.50;;;;;;;20.69;35.81;101770.28;5081623;28;20028;-43
2022/05/28 11:29:19;;;;;;;1.60;0.65;;;;;;;20.26;36.37;101767.59;5096441;28;20549;-43
2022/05/28 11:31:50;;;;;;;;;;;;;;;20.05;36.60;101760.69;5054002;28;20058;-43
2022/05/28 11:34:21;;;;;;;25.25;6.72;;;;;;;19.88;37.54;101763.16;5079195;28;20340;-43
2022/05/28 11:36:58;;;;;;;1.92;0.85;;;;;;;19.60;37.76;101747.22;5078827;28;20020;-43
2022/05/28 11:39:37;;;;;;;2.22;0.82;;;;;;;19.86;36.81;101751.66;5096504;28;20481;-43
2022/05/28 11:42:15;;;;;;;1.45;0.77;;;;;;;22.58;34.65;101753.34;5096917;28;20024;-43
2022/05/28 11:44:48;;;;;;;1.50;0.80;;;;;;;23.22;29.98;101739.53;5097301;28;20024;-45
2022/05/28 11:47:34;;;;;;;1.30;0.50;;;;;;;24.59;28.80;101724.53;5097020;28;20035;-42
2022/05/28 11:53:04;;;;;;;1.88;0.70;;;;;;;26.59;26.14;101729.66;5068449;28;20112;-45
2022/05/28 11:55:35;;;;;;;1.55;0.70;;;;;;;23.76;28.67;101725.31;5079463;28;20356;-45
2022/05/28 11:58:09;;;;;;;0.80;0.60;;;;;;;23.18;31.01;101725.47;5096620;28;20020;-44
2022/05/28 12:00:37;;;;;;;;;;;;;;;22.75;31.02;101734.22;5078536;28;20107;-42
2022/05/28 12:03:25;;;;;;;1.02;0.50;;;;;;;22.30;31.76;101733.03;5077611;28;19908;-43